This is the latest recevied weather packets stored in our database for station/object HA2SKA-1. If no packets are shown the sender has not sent any weather packets the latest 10 day(s).
| Time | Temp. | Humidity | Pressure | Rain* | Wind** | Luminosity | Snow |
|---|---|---|---|---|---|---|---|
| 1778050845 | 21.11° C | 52% | 1013.4 hPa | - | - | - | - |
| 1778049945 | 21.11° C | 51% | 1013.4 hPa | - | - | - | - |
| 1778049045 | 20° C | 53% | 1013.4 hPa | - | - | - | - |
| 1778048145 | 20° C | 52% | 1013.3 hPa | - | - | - | - |
| 1778047245 | 21.11° C | 51% | 1013.3 hPa | - | - | - | - |
| 1778046344 | 20° C | 52% | 1013.4 hPa | - | - | - | - |
| 1778045444 | 20° C | 53% | 1013.2 hPa | - | - | - | - |
| 1778044544 | 19.44° C | 55% | 1013.3 hPa | - | - | - | - |
| 1778043644 | 21.67° C | 48% | 1013.1 hPa | - | - | - | - |
| 1778042744 | 17.78° C | 59% | 1013.1 hPa | - | - | - | - |
| 1778041844 | 16.11° C | 65% | 1013 hPa | - | - | - | - |
| 1778040944 | 15.56° C | 70% | 1012.8 hPa | - | - | - | - |
| 1778040044 | 14.44° C | 73% | 1012.7 hPa | - | - | - | - |
| 1778039144 | 14.44° C | 74% | 1012.7 hPa | - | - | - | - |
| 1778038244 | 13.89° C | 75% | 1012.5 hPa | - | - | - | - |
| 1778037343 | 14.44° C | 74% | 1012.5 hPa | - | - | - | - |
| 1778036443 | 14.44° C | 72% | 1012.5 hPa | - | - | - | - |
| 1778035543 | 14.44° C | 73% | 1012.5 hPa | - | - | - | - |
| 1778034643 | 15° C | 71% | 1012.4 hPa | - | - | - | - |
| 1778033743 | 14.44° C | 72% | 1012.4 hPa | - | - | - | - |
| 1778032843 | 14.44° C | 72% | 1012.6 hPa | - | - | - | - |
| 1778031943 | 15° C | 69% | 1012.4 hPa | - | - | - | - |
| 1778031043 | 15° C | 69% | 1012.3 hPa | - | - | - | - |
| 1778030143 | 14.44° C | 71% | 1012.3 hPa | - | - | - | - |
| 1778029243 | 15° C | 71% | 1012.3 hPa | - | - | - | - |
* Rain since midnight (hover to see other rain measurements)
** Current wind speed in m/s (hover to see current wind gust speed)